Crookston Municipal Kirkwood Field

About
Name: Crookston Municipal Kirkwood Field
Identifier:  CKN/KCKN
Local Time:  25. Aug 03:52 CDT
Location
Flights per Day
0 flights
Distance: 423km (263mi)
Punctuality
50% (0 flights per day delayed)
Delay Average: 23 minutes
Current Weather
 17 C (Humidity: 77%)
  12kt (22km/h / 13mph) from 170°
  16km (10 mi.)
 
 METAR KCKN 250835Z AUTO 17012KT 10SM CLR 17/13 A2990 RMK AO2

Current Flights

Departures
Number Departure To Airline
Arrivals
Number Arrival From Airline

Current Delays

Departures
N/A
Arrivals
N/A

Destinations

Top Destinations
Airport Flights
per week
Seats
per week
  St. Paul (STP) 0 - 0 0

Airlines & Planes

Top Airlines
Airline Flights
per Day
Seats
per Day
  Nolinor Aviation 0 -
Top Plane Types
Model Flights Seats
Beech E90 King Air 0.1/day - 0